TLPC/SLU METAR and TAF weather

Enter ICAO airport designator
Station Type Date Time Source
TLPC METAR 2021/06/23 22:00 UTC NOAA

TLPC 232200Z 11007KT 9999 SCT028 29/23 Q1014 NOSIG


Station Type Date Time Source
TLPC Decoded METAR 2021/06/23 22:00 UTC NOAA

Vigie, Saint Lucia (TLPC) 14-01N 061-00W 2M
Jun 23, 2021 - 06:00 PM EDT / 2021.06.23 2200 UTC
Wind: from the ESE (110 degrees) at 8 MPH (7 KT):0
Visibility: greater than 7 mile(s):0
Sky conditions: partly cloudy
Temperature: 84 F (29 C)
Dew Point: 73 F (23 C)
Relative Humidity: 70%
Pressure (altimeter): 29.94 in. Hg (1014 hPa)
ob: TLPC 232200Z 11007KT 9999 SCT028 29/23 Q1014 NOSIG
cycle: 22

Station Type Date Time Source
TLPC TAF 2021/06/24 06:09 UTC NOAA

TAF TAF TLPC 240500Z 2406/2506 08008KT 9999 SCT024
TEMPO 2412/2506 SHRA FEW017CB BKN020

Example: see airport list